createdAt,value
2023-03-01T00:02:07.539Z,14.90
2023-03-01T00:04:33.926Z,14.63
2023-03-01T00:07:00.232Z,15.20
2023-03-01T00:09:26.547Z,17.25
2023-03-01T00:11:52.911Z,15.95
2023-03-01T00:14:19.282Z,15.60
2023-03-01T00:16:47.032Z,21.08
2023-03-01T00:19:16.668Z,26.33
2023-03-01T00:21:43.342Z,25.08
2023-03-01T00:24:11.254Z,18.23
2023-03-01T00:26:37.645Z,17.10
2023-03-01T00:29:04.667Z,16.15
2023-03-01T00:31:32.809Z,15.90
2023-03-01T00:34:02.397Z,16.80
2023-03-01T00:36:35.506Z,16.40
2023-03-01T00:39:02.731Z,16.20
2023-03-01T00:41:29.312Z,15.38
2023-03-01T00:43:56.393Z,16.95
2023-03-01T00:46:26.655Z,17.00
2023-03-01T00:48:53.822Z,15.50
2023-03-01T00:51:24.165Z,17.35
2023-03-01T00:53:55.536Z,15.70
2023-03-01T00:56:22.303Z,16.10
2023-03-01T00:58:48.633Z,14.43
2023-03-01T01:01:18.872Z,16.83
2023-03-01T01:03:51.313Z,16.37
2023-03-01T01:06:23.557Z,16.30
2023-03-01T01:08:50.971Z,17.15
2023-03-01T01:11:18.031Z,16.90
2023-03-01T01:13:46.740Z,18.98
2023-03-01T01:16:13.968Z,19.45
2023-03-01T01:18:41.368Z,18.08
2023-03-01T01:21:11.980Z,18.52
2023-03-01T01:23:39.415Z,21.85
2023-03-01T01:26:12.896Z,20.08
2023-03-01T01:28:39.669Z,20.90
2023-03-01T01:31:06.642Z,19.30
2023-03-01T01:33:34.163Z,18.50
2023-03-01T01:36:00.694Z,17.63
2023-03-01T01:38:27.128Z,18.58
2023-03-01T01:40:53.585Z,16.90
2023-03-01T01:43:25.870Z,19.10
2023-03-01T01:45:57.988Z,17.52
2023-03-01T01:48:41.030Z,18.25
2023-03-01T01:51:16.394Z,17.35
2023-03-01T01:53:46.745Z,17.38
2023-03-01T01:56:16.131Z,13.35
2023-03-01T01:58:43.585Z,19.00
2023-03-01T02:01:10.453Z,20.50
2023-03-01T02:03:42.979Z,20.23
2023-03-01T02:06:12.134Z,19.58
2023-03-01T02:08:41.325Z,21.48
2023-03-01T02:11:09.620Z,20.33
2023-03-01T02:13:36.040Z,21.35
2023-03-01T02:16:10.226Z,20.48
2023-03-01T02:18:37.914Z,19.45
2023-03-01T02:21:18.349Z,19.50
2023-03-01T02:23:44.698Z,19.93
2023-03-01T02:26:30.417Z,17.60
2023-03-01T02:28:59.530Z,18.33
2023-03-01T02:31:45.785Z,18.33
2023-03-01T02:34:20.401Z,17.42
2023-03-01T02:36:50.643Z,17.63
2023-03-01T02:39:21.578Z,18.83
2023-03-01T02:41:52.872Z,18.10
2023-03-01T02:44:19.674Z,17.25
2023-03-01T02:46:49.860Z,18.40
2023-03-01T02:49:37.412Z,19.75
2023-03-01T02:52:34.015Z,17.85
2023-03-01T02:55:13.707Z,18.20
2023-03-01T02:57:43.728Z,17.63
2023-03-01T03:00:19.952Z,18.40
2023-03-01T03:02:48.155Z,17.98
2023-03-01T03:05:25.291Z,18.55
2023-03-01T03:07:55.318Z,17.30
2023-03-01T03:10:26.003Z,17.85
2023-03-01T03:13:20.054Z,20.17
2023-03-01T03:15:46.412Z,18.92
2023-03-01T03:18:15.752Z,18.63
2023-03-01T03:20:44.067Z,18.05
2023-03-01T03:23:10.551Z,20.05
2023-03-01T03:25:38.607Z,20.00
2023-03-01T03:28:10.412Z,19.42
2023-03-01T03:30:39.857Z,18.02
2023-03-01T03:33:06.946Z,20.55
2023-03-01T03:35:38.940Z,21.70
2023-03-01T03:38:10.093Z,20.67
2023-03-01T03:43:06.374Z,19.98
2023-03-01T03:45:34.325Z,20.33
2023-03-01T03:48:02.099Z,19.92
2023-03-01T03:50:28.804Z,19.45
2023-03-01T03:52:55.172Z,18.77
2023-03-01T03:55:21.564Z,20.55
2023-03-01T03:57:52.222Z,20.60
2023-03-01T04:00:20.803Z,20.85
2023-03-01T04:02:48.767Z,20.95
2023-03-01T04:05:17.813Z,20.58
2023-03-01T04:07:44.956Z,19.70
2023-03-01T04:10:17.249Z,21.02
2023-03-01T04:12:44.110Z,20.00
2023-03-01T04:15:13.970Z,19.73
2023-03-01T04:17:45.751Z,20.92
2023-03-01T04:20:25.554Z,20.02
2023-03-01T04:22:58.172Z,19.95
2023-03-01T04:25:25.402Z,19.58
2023-03-01T04:27:52.553Z,19.08
2023-03-01T04:30:18.925Z,20.98
2023-03-01T04:32:45.305Z,20.42
2023-03-01T04:35:11.610Z,20.92
2023-03-01T04:37:39.392Z,22.20
2023-03-01T04:40:17.207Z,20.80
2023-03-01T04:42:44.004Z,20.50
2023-03-01T04:45:13.926Z,22.88
2023-03-01T04:47:47.927Z,20.98
2023-03-01T04:50:18.179Z,21.65
2023-03-01T04:52:45.176Z,20.67
2023-03-01T04:55:12.048Z,20.38
2023-03-01T04:57:38.352Z,20.92
2023-03-01T05:00:21.384Z,21.23
2023-03-01T05:02:49.914Z,20.88
2023-03-01T05:05:16.535Z,20.02
2023-03-01T05:07:42.848Z,18.98
2023-03-01T05:10:10.156Z,20.50
2023-03-01T05:12:38.203Z,20.63
2023-03-01T05:15:07.866Z,21.95
2023-03-01T05:17:35.138Z,20.00
2023-03-01T05:20:01.917Z,21.08
2023-03-01T05:22:28.239Z,21.33
2023-03-01T05:24:54.948Z,22.58
2023-03-01T05:27:23.030Z,21.75
2023-03-01T05:29:49.365Z,22.25
2023-03-01T05:32:16.579Z,21.30
2023-03-01T05:34:43.024Z,21.67
2023-03-01T05:37:09.839Z,22.40
2023-03-01T05:39:37.212Z,23.40
2023-03-01T05:42:03.643Z,23.45
2023-03-01T05:44:30.008Z,22.10
2023-03-01T05:46:56.458Z,21.52
2023-03-01T05:49:24.839Z,21.55
2023-03-01T05:51:53.244Z,21.67
2023-03-01T05:54:21.159Z,22.52
2023-03-01T05:56:47.823Z,22.48
2023-03-01T05:59:14.782Z,21.90
2023-03-01T06:01:41.596Z,20.88
2023-03-01T06:04:07.925Z,20.27
2023-03-01T06:06:38.208Z,20.45
2023-03-01T06:09:05.946Z,20.53
2023-03-01T06:11:35.036Z,22.27
2023-03-01T06:14:01.428Z,19.95
2023-03-01T06:16:27.841Z,22.20
2023-03-01T06:18:54.261Z,22.92
2023-03-01T06:21:20.537Z,22.13
2023-03-01T06:23:46.837Z,22.67
2023-03-01T06:26:13.176Z,20.70
2023-03-01T06:28:39.488Z,21.73
2023-03-01T06:31:09.338Z,20.88
2023-03-01T06:33:36.886Z,21.38
2023-03-01T06:36:03.402Z,22.33
2023-03-01T06:38:29.718Z,21.67
2023-03-01T06:40:57.500Z,22.02
2023-03-01T06:43:24.684Z,20.48
2023-03-01T06:45:51.348Z,21.55
2023-03-01T06:48:18.227Z,20.35
2023-03-01T06:50:44.702Z,21.98
2023-03-01T06:53:11.491Z,22.08
2023-03-01T06:55:37.830Z,20.63
2023-03-01T06:58:04.413Z,22.23
2023-03-01T07:00:31.241Z,20.67
2023-03-01T07:03:02.686Z,20.35
2023-03-01T07:05:29.616Z,23.33
2023-03-01T07:07:57.129Z,21.80
2023-03-01T07:10:23.919Z,21.77
2023-03-01T07:12:50.249Z,22.80
2023-03-01T07:15:16.791Z,20.75
2023-03-01T07:17:45.308Z,21.88
2023-03-01T07:20:12.320Z,21.88
2023-03-01T07:22:41.725Z,21.85
2023-03-01T07:25:08.474Z,22.08
2023-03-01T07:27:34.884Z,21.25
2023-03-01T07:30:01.483Z,22.08
2023-03-01T07:32:27.840Z,21.88
2023-03-01T07:34:54.161Z,21.02
2023-03-01T07:37:20.600Z,20.92
2023-03-01T07:39:46.883Z,21.17
2023-03-01T07:42:13.191Z,21.65
2023-03-01T07:44:39.516Z,21.38
2023-03-01T07:47:05.974Z,21.95
2023-03-01T07:49:32.289Z,21.33
2023-03-01T07:51:58.882Z,21.15
2023-03-01T07:54:25.344Z,23.00
2023-03-01T07:56:51.660Z,22.38
2023-03-01T07:59:17.992Z,24.15
2023-03-01T08:01:44.394Z,22.77
2023-03-01T08:04:11.364Z,22.73
2023-03-01T08:06:38.139Z,22.98
2023-03-01T08:09:04.537Z,21.40
2023-03-01T08:11:31.038Z,22.15
2023-03-01T08:13:58.290Z,21.08
2023-03-01T08:16:24.910Z,22.13
2023-03-01T08:18:51.244Z,22.08
2023-03-01T08:21:18.600Z,25.30
2023-03-01T08:23:45.515Z,25.98
2023-03-01T08:26:19.277Z,22.10
2023-03-01T08:28:46.344Z,22.42
2023-03-01T08:31:36.438Z,24.40
2023-03-01T08:34:06.033Z,23.90
2023-03-01T08:36:35.883Z,21.75
2023-03-01T08:39:02.305Z,23.02
2023-03-01T08:41:29.054Z,22.15
2023-03-01T08:43:59.440Z,20.40
2023-03-01T08:46:30.709Z,17.13
2023-03-01T08:48:57.575Z,20.98
2023-03-01T08:51:25.882Z,22.33
2023-03-01T08:53:52.757Z,24.20
2023-03-01T08:56:20.265Z,22.45
2023-03-01T08:58:48.125Z,24.05
2023-03-01T09:01:19.834Z,24.05
2023-03-01T09:03:47.246Z,21.15
2023-03-01T09:06:14.960Z,22.85
2023-03-01T09:08:45.639Z,22.70
2023-03-01T09:11:16.161Z,23.10
2023-03-01T09:13:44.336Z,22.30
2023-03-01T09:16:13.080Z,23.48
2023-03-01T09:18:39.655Z,22.15
2023-03-01T09:21:11.171Z,21.23
2023-03-01T09:23:40.455Z,20.65
2023-03-01T09:26:12.543Z,20.50
2023-03-01T09:28:39.849Z,21.17
2023-03-01T09:31:06.303Z,21.48
2023-03-01T09:33:34.354Z,21.05
2023-03-01T09:36:06.802Z,21.08
2023-03-01T09:38:33.456Z,21.33
2023-03-01T09:41:01.347Z,20.38
2023-03-01T09:46:17.479Z,22.58
2023-03-01T09:48:56.270Z,19.85
2023-03-01T09:51:30.495Z,21.45
2023-03-01T09:53:59.465Z,20.88
2023-03-01T09:56:34.688Z,19.92
2023-03-01T09:59:29.528Z,19.42
2023-03-01T10:02:23.792Z,18.85
2023-03-01T10:04:57.144Z,19.23
2023-03-01T10:07:38.712Z,20.00
2023-03-01T10:10:27.101Z,18.48
2023-03-01T10:12:53.777Z,19.67
2023-03-01T10:15:36.637Z,19.40
2023-03-01T10:18:11.595Z,19.48
2023-03-01T10:21:00.200Z,18.67
2023-03-01T10:23:29.242Z,19.13
2023-03-01T10:26:05.291Z,19.10
2023-03-01T10:28:46.473Z,24.60
2023-03-01T10:31:15.965Z,24.48
2023-03-01T10:33:42.803Z,19.73
2023-03-01T10:36:09.559Z,19.95
2023-03-01T10:39:37.310Z,19.50
2023-03-01T10:42:06.843Z,18.83
2023-03-01T10:44:40.744Z,19.35
2023-03-01T10:47:15.492Z,20.02
2023-03-01T10:50:00.003Z,18.00
2023-03-01T10:52:29.713Z,18.02
2023-03-01T10:54:59.074Z,18.67
2023-03-01T10:57:37.045Z,18.55
2023-03-01T11:00:19.838Z,19.05
2023-03-01T11:03:02.064Z,18.13
2023-03-01T11:05:31.548Z,19.02
2023-03-01T11:07:59.899Z,24.17
2023-03-01T11:10:29.226Z,19.40
2023-03-01T11:13:08.980Z,17.52
2023-03-01T11:15:35.852Z,17.38
2023-03-01T11:18:13.872Z,18.58
2023-03-01T11:20:42.232Z,18.38
2023-03-01T11:23:14.186Z,19.05
2023-03-01T11:25:43.605Z,18.00
2023-03-01T11:28:16.579Z,18.33
2023-03-01T11:31:06.898Z,17.15
2023-03-01T11:36:39.450Z,16.55
2023-03-01T11:39:28.787Z,16.05
2023-03-01T11:42:18.555Z,17.65
2023-03-01T11:44:53.139Z,16.70
2023-03-01T11:47:44.874Z,17.17
2023-03-01T11:50:17.255Z,15.73
2023-03-01T11:53:09.685Z,16.98
2023-03-01T11:56:16.209Z,16.92
2023-03-01T11:58:59.653Z,16.23
2023-03-01T12:01:34.225Z,16.50
2023-03-01T12:04:10.953Z,16.10
2023-03-01T12:06:48.991Z,16.08
2023-03-01T12:09:26.841Z,15.65
2023-03-01T12:12:11.951Z,21.08
2023-03-01T12:15:08.265Z,17.10
2023-03-01T12:17:40.499Z,16.08
2023-03-01T12:20:25.038Z,15.50
2023-03-01T12:23:30.347Z,14.57
2023-03-01T12:26:03.653Z,16.42
2023-03-01T12:28:45.958Z,17.02
2023-03-01T12:31:45.379Z,17.63
2023-03-01T12:34:14.708Z,15.40
2023-03-01T12:37:13.423Z,15.30
2023-03-01T12:39:51.135Z,15.27
2023-03-01T12:43:01.120Z,14.95
2023-03-01T12:45:46.771Z,14.45
2023-03-01T12:48:18.948Z,16.55
2023-03-01T12:50:52.536Z,15.48
2023-03-01T12:53:26.405Z,14.02
2023-03-01T12:55:57.006Z,13.45
2023-03-01T12:58:49.610Z,14.85
2023-03-01T13:01:17.245Z,13.27
2023-03-01T13:04:19.072Z,14.95
2023-03-01T13:06:51.957Z,14.15
2023-03-01T13:09:28.428Z,13.55
2023-03-01T13:11:54.757Z,12.63
2023-03-01T13:14:21.003Z,12.55
2023-03-01T13:16:50.081Z,12.20
2023-03-01T13:19:25.087Z,12.93
2023-03-01T13:21:55.517Z,12.15
2023-03-01T13:24:27.751Z,13.00
2023-03-01T13:27:06.383Z,14.00
2023-03-01T13:29:47.141Z,13.73
2023-03-01T13:32:34.366Z,13.50
2023-03-01T13:35:20.573Z,13.93
2023-03-01T13:37:47.841Z,13.77
2023-03-01T13:40:17.705Z,14.73
2023-03-01T13:42:59.360Z,14.15
2023-03-01T13:45:43.765Z,90.93
2023-03-01T13:48:17.594Z,59.03
2023-03-01T13:50:52.393Z,52.53
2023-03-01T13:53:21.020Z,51.22
2023-03-01T13:55:51.775Z,22.35
2023-03-01T13:58:32.318Z,17.48
2023-03-01T14:01:04.982Z,23.05
2023-03-01T14:03:33.378Z,14.27
2023-03-01T14:06:15.295Z,13.93
2023-03-01T14:08:45.463Z,14.05
2023-03-01T14:11:30.542Z,12.68
2023-03-01T14:14:17.065Z,12.98
2023-03-01T14:16:46.795Z,14.05
2023-03-01T14:19:32.564Z,12.00
2023-03-01T14:22:13.671Z,13.98
2023-03-01T14:24:47.963Z,11.93
2023-03-01T14:27:14.775Z,12.43
2023-03-01T14:29:41.454Z,12.23
2023-03-01T14:32:22.377Z,23.75
2023-03-01T14:34:51.132Z,42.55
2023-03-01T14:37:23.743Z,39.00
2023-03-01T14:39:50.480Z,40.17
2023-03-01T14:42:18.058Z,33.53
2023-03-01T14:44:47.169Z,21.30
2023-03-01T14:47:20.666Z,18.17
2023-03-01T14:49:50.486Z,14.85
2023-03-01T14:52:23.945Z,13.52
2023-03-01T14:54:54.056Z,14.00
2023-03-01T14:57:25.834Z,14.07
2023-03-01T14:59:55.433Z,15.15
2023-03-01T15:02:24.830Z,13.57
2023-03-01T15:04:57.491Z,14.43
2023-03-01T15:07:28.763Z,13.88
2023-03-01T15:12:40.078Z,14.63
2023-03-01T15:15:43.674Z,13.05
2023-03-01T15:18:22.470Z,14.48
2023-03-01T15:20:50.606Z,13.38
2023-03-01T15:23:25.149Z,12.55
2023-03-01T15:25:59.237Z,12.18
2023-03-01T15:28:31.317Z,10.45
2023-03-01T15:31:02.828Z,11.98
2023-03-01T15:33:33.186Z,10.70
2023-03-01T15:36:02.323Z,11.67
2023-03-01T15:38:32.912Z,11.23
2023-03-01T15:41:05.212Z,10.80
2023-03-01T15:43:47.308Z,12.25
2023-03-01T15:46:25.891Z,11.05
2023-03-01T15:48:57.299Z,10.90
2023-03-01T15:51:30.586Z,10.73
2023-03-01T15:53:59.352Z,11.77
2023-03-01T15:56:25.789Z,10.40
2023-03-01T15:58:52.099Z,11.23
2023-03-01T16:01:18.884Z,10.70
2023-03-01T16:03:46.180Z,10.35
2023-03-01T16:06:13.234Z,11.32
2023-03-01T16:08:39.567Z,12.40
2023-03-01T16:11:14.797Z,13.43
2023-03-01T16:13:41.304Z,31.85
2023-03-01T16:16:10.258Z,28.13
2023-03-01T16:18:36.623Z,27.27
2023-03-01T16:21:02.978Z,17.85
2023-03-01T16:23:29.290Z,13.75
2023-03-01T16:26:00.512Z,12.40
2023-03-01T16:28:28.661Z,13.35
2023-03-01T16:30:55.719Z,13.30
2023-03-01T16:33:33.516Z,13.00
2023-03-01T16:36:10.951Z,12.32
2023-03-01T16:38:38.139Z,16.48
2023-03-01T16:41:04.520Z,23.08
2023-03-01T16:43:31.626Z,12.85
2023-03-01T16:45:59.673Z,12.25
2023-03-01T16:48:26.847Z,10.35
2023-03-01T16:50:57.804Z,9.73
2023-03-01T16:53:24.142Z,9.50
2023-03-01T16:55:57.899Z,11.30
2023-03-01T16:58:25.531Z,10.48
2023-03-01T17:00:54.174Z,10.82
2023-03-01T17:03:22.471Z,10.85
2023-03-01T17:05:49.719Z,10.38
2023-03-01T17:08:16.904Z,10.00
2023-03-01T17:10:43.490Z,10.52
2023-03-01T17:13:11.057Z,31.83
2023-03-01T17:15:41.447Z,29.25
2023-03-01T17:18:09.439Z,34.72
2023-03-01T17:20:36.675Z,22.02
2023-03-01T17:23:03.772Z,19.67
2023-03-01T17:25:30.250Z,14.25
2023-03-01T17:27:56.646Z,14.43
2023-03-01T17:30:23.114Z,11.98
2023-03-01T17:32:49.641Z,11.07
2023-03-01T17:35:16.070Z,13.80
2023-03-01T17:37:46.220Z,14.30
2023-03-01T17:40:13.165Z,11.65
2023-03-01T17:42:39.562Z,12.32
2023-03-01T17:45:06.720Z,12.63
2023-03-01T17:47:33.012Z,10.52
2023-03-01T17:50:00.243Z,11.35
2023-03-01T17:52:26.561Z,11.15
2023-03-01T17:54:52.890Z,12.48
2023-03-01T17:57:19.201Z,10.77
2023-03-01T17:59:45.550Z,12.07
2023-03-01T18:02:12.999Z,12.02
2023-03-01T18:04:39.467Z,11.15
2023-03-01T18:07:05.790Z,11.48
2023-03-01T18:09:32.112Z,10.43
2023-03-01T18:11:58.695Z,11.13
2023-03-01T18:14:25.798Z,11.05
2023-03-01T18:16:52.149Z,12.18
2023-03-01T18:19:18.706Z,13.55
2023-03-01T18:21:44.998Z,13.57
2023-03-01T18:24:11.318Z,11.48
2023-03-01T18:26:39.256Z,12.68
2023-03-01T18:29:07.587Z,12.13
2023-03-01T18:31:33.968Z,12.85
2023-03-01T18:34:03.275Z,14.23
2023-03-01T18:36:32.964Z,13.68
2023-03-01T18:39:01.227Z,16.27
2023-03-01T18:41:28.509Z,13.98
2023-03-01T18:43:58.407Z,12.02
2023-03-01T18:46:25.793Z,12.43
2023-03-01T18:48:53.377Z,10.02
2023-03-01T18:51:22.859Z,10.30
2023-03-01T18:53:49.339Z,10.57
2023-03-01T18:56:15.734Z,10.70
2023-03-01T18:58:42.974Z,11.63
2023-03-01T19:01:15.904Z,11.98
2023-03-01T19:03:57.735Z,16.83
2023-03-01T19:06:31.283Z,15.25
2023-03-01T19:08:57.783Z,15.05
2023-03-01T19:11:26.879Z,12.88
2023-03-01T19:13:54.270Z,12.18
2023-03-01T19:17:05.108Z,15.00
2023-03-01T19:19:32.686Z,13.70
2023-03-01T19:22:05.633Z,15.43
2023-03-01T19:24:32.750Z,16.45
2023-03-01T19:26:59.061Z,15.90
2023-03-01T19:29:26.118Z,15.38
2023-03-01T19:31:52.484Z,16.77
2023-03-01T19:34:18.819Z,15.65
2023-03-01T19:36:45.185Z,16.25
2023-03-01T19:39:13.354Z,22.17
2023-03-01T19:41:40.100Z,17.60
2023-03-01T19:44:08.495Z,15.43
2023-03-01T19:46:35.483Z,14.00
2023-03-01T19:49:03.337Z,13.95
2023-03-01T19:51:33.262Z,13.77
2023-03-01T19:53:59.980Z,13.90
2023-03-01T19:56:26.317Z,10.80
2023-03-01T19:59:00.056Z,11.43
2023-03-01T20:01:32.702Z,11.85
2023-03-01T20:03:59.014Z,11.38
2023-03-01T20:06:25.643Z,13.88
2023-03-01T20:08:52.454Z,14.40
2023-03-01T20:11:19.780Z,14.63
2023-03-01T20:13:46.169Z,17.38
2023-03-01T20:16:16.526Z,26.42
2023-03-01T20:18:42.951Z,23.33
2023-03-01T20:21:21.477Z,15.07
2023-03-01T20:23:49.791Z,17.17
2023-03-01T20:26:19.380Z,28.02
2023-03-01T20:28:47.444Z,23.50
2023-03-01T20:31:15.761Z,14.95
2023-03-01T20:33:42.140Z,14.95
2023-03-01T20:36:10.057Z,16.77
2023-03-01T20:38:37.420Z,20.40
2023-03-01T20:41:06.348Z,19.90
2023-03-01T20:43:33.456Z,14.00
2023-03-01T20:46:03.981Z,13.82
2023-03-01T20:48:30.301Z,13.52
2023-03-01T20:50:59.677Z,15.65
2023-03-01T20:53:26.000Z,13.90
2023-03-01T20:55:52.323Z,13.90
2023-03-01T20:58:18.603Z,12.30
2023-03-01T21:00:45.005Z,13.57
2023-03-01T21:03:11.337Z,13.30
2023-03-01T21:05:37.695Z,11.90
2023-03-01T21:08:04.172Z,12.65
2023-03-01T21:10:32.264Z,13.38
2023-03-01T21:12:58.669Z,14.60
2023-03-01T21:15:29.311Z,15.15
2023-03-01T21:17:56.013Z,13.60
2023-03-01T21:20:22.628Z,13.27
2023-03-01T21:22:49.019Z,14.93
2023-03-01T21:25:15.518Z,13.77
2023-03-01T21:27:41.885Z,20.33
2023-03-01T21:30:08.704Z,17.10
2023-03-01T21:32:35.090Z,15.88
2023-03-01T21:35:01.463Z,17.00
2023-03-01T21:37:27.834Z,16.33
2023-03-01T21:39:54.148Z,16.48
2023-03-01T21:42:20.452Z,15.18
2023-03-01T21:44:46.818Z,16.33
2023-03-01T21:47:13.223Z,17.23
2023-03-01T21:49:39.524Z,18.88
2023-03-01T21:52:05.861Z,17.45
2023-03-01T21:54:34.067Z,15.77
2023-03-01T21:57:00.523Z,23.20
2023-03-01T21:59:28.179Z,27.30
2023-03-01T22:01:54.511Z,21.40
2023-03-01T22:04:22.457Z,17.23
2023-03-01T22:06:54.185Z,14.80
2023-03-01T22:09:22.886Z,14.30
2023-03-01T22:11:53.849Z,17.85
2023-03-01T22:14:21.502Z,21.48
2023-03-01T22:16:51.082Z,22.17
2023-03-01T22:19:17.831Z,21.33
2023-03-01T22:21:49.005Z,18.35
2023-03-01T22:26:44.651Z,17.67
2023-03-01T22:29:14.474Z,18.90
2023-03-01T22:31:41.340Z,25.25
2023-03-01T22:34:08.870Z,22.02
2023-03-01T22:36:35.553Z,16.25
2023-03-01T22:39:02.558Z,17.60
2023-03-01T22:41:31.254Z,21.77
2023-03-01T22:43:57.851Z,19.45
2023-03-01T22:46:25.460Z,16.58
2023-03-01T22:48:52.267Z,16.83
2023-03-01T22:51:21.508Z,16.85
2023-03-01T22:53:48.124Z,15.15
2023-03-01T22:56:28.984Z,15.48
2023-03-01T22:58:57.059Z,14.68
2023-03-01T23:01:25.025Z,109.95
2023-03-01T23:03:53.468Z,57.85
2023-03-01T23:06:21.259Z,35.28
2023-03-01T23:08:53.583Z,61.15
2023-03-01T23:11:21.230Z,104.53
2023-03-01T23:13:48.399Z,52.88
2023-03-01T23:16:15.984Z,26.27
2023-03-01T23:18:43.343Z,55.33
2023-03-01T23:21:15.602Z,30.45
2023-03-01T23:23:42.897Z,26.75
2023-03-01T23:26:09.678Z,37.88
2023-03-01T23:28:40.202Z,91.32
2023-03-01T23:31:09.854Z,70.63
2023-03-01T23:33:38.915Z,55.97
2023-03-01T23:36:19.989Z,56.45
2023-03-01T23:38:47.444Z,82.88
2023-03-01T23:41:16.107Z,84.22
2023-03-01T23:43:47.079Z,64.07
2023-03-01T23:46:14.944Z,65.72
2023-03-01T23:48:42.750Z,38.17
2023-03-01T23:51:09.633Z,32.53
2023-03-01T23:53:39.128Z,23.08
2023-03-01T23:56:06.364Z,20.27
2023-03-01T23:58:32.726Z,19.65
